Terminal Aerodrome Forecast
Issued by NWS

Home | Current Version | Previous Version | Text Only | Print | Product List | Glossary On
Versions: 1 2 3 4 5 6 7 8 9 10 11 12 13 14 15 16 17 18 19 20 21 22 23 24
648
FTUS43 KLOT 172335
TAFDPA
TAF
KDPA 172335Z 1800/1824 VRB03KT 6SM BR SCT035 OVC090
     FM180200 22004KT 6SM -SHRA BR SCT020 OVC035
     FM180500 24005KT 5SM BR BKN010
     FM180800 24007KT 3SM -DZ BR OVC007
      TEMPO 1810/1814 1SM -DZ BR
     FM181600 24012KT P6SM BKN015
     FM182000 24010KT P6SM SCT035=

USA.gov is the U.S. government's official web portal to all federal, state and local government web resources and services.